Terminal Aerodrome Forecast
Issued by NWS

Home | Current Version | Previous Version | Graphics & Text | Print | Product List | Glossary On
Versions: 1 2 3 4 5 6 7 8 9 10 11 12 13 14 15 16 17 18 19 20 21 22 23 24 25 26 27 28 29 30 31 32 33
000
FTUS43 KLOT 222300
TAFMDW
TAF
KMDW 222333Z 2300/2324 10012KT 2SM RA BR OVC006
      TEMPO 2300/2303 1 1/2SM RA BR OVC005
     FM230300 11012KT 2SM -DZ BR OVC004
     FM230700 12010KT 1 1/2SM RA BR OVC004
     FM231100 19009KT 4SM BR OVC007
     FM231600 21012KT P6SM OVC015=

USA.gov is the U.S. government's official web portal to all federal, state and local government web resources and services.